KPQI

Northern Maine Regional Arpt at Presque Is Airport

Presque Isle, Maine, USA
METAR KPQI 250456Z AUTO 14004KT 10SM BKN075 OVC095 09/07 A2982 RMK AO2 RAE30 SLP141 P0000 T00890072 401781006
Observed Flight Rules
May-25 @ 04:56 UTC (32 minutes ago) Visual Flight Rules
Wind Visibility Clouds
140° at 4 knots 10 miles
  • Broken at 7,500' AGL
  • Overcast at 9,500' AGL
Temperatures Readings Precipitation
Current 9°C / 48°F
Dewpoint 7°C / 45°F
Humidity 87%
Altimeter 29.82" Hg
Pressure 1014.1 hPa
Elevation 146
Current Rain 0.005
METAR KPQI 250456Z AUTO 14004KT 10SM BKN075 OVC095 09/07 A2982 RMK AO2 RAE30 SLP141 P0000 T00890072 401781006
Observed Flight Rules
May-25 @ 04:56 UTC
(32 minutes ago)
VFR
Wind Visibility
140° at 4 knots 10 miles
Clouds
  • Broken at 7,500' AGL
  • Overcast at 9,500' AGL
Temperature Dewpoint
9°C / 48°F 7°C / 45°F
Humidity Altimeter Pressure
87% 29.82" Hg 1014.1 hPa
Current Rain
0.005